createdAt,value
2018-02-23T00:00:46.696Z,-4.10
2018-02-23T00:03:15.013Z,-4.10
2018-02-23T00:05:43.304Z,-4.10
2018-02-23T00:08:11.627Z,-4.20
2018-02-23T00:10:39.924Z,-4.20
2018-02-23T00:13:08.240Z,-4.20
2018-02-23T00:15:36.536Z,-4.30
2018-02-23T00:18:04.852Z,-4.30
2018-02-23T00:20:33.152Z,-4.30
2018-02-23T00:23:01.473Z,-4.40
2018-02-23T00:25:29.767Z,-4.40
2018-02-23T00:27:58.084Z,-4.40
2018-02-23T00:30:26.376Z,-4.40
2018-02-23T00:32:54.688Z,-4.40
2018-02-23T00:35:22.982Z,-4.50
2018-02-23T00:37:51.296Z,-4.50
2018-02-23T00:40:19.604Z,-4.50
2018-02-23T00:42:47.920Z,-4.50
2018-02-23T00:45:15.444Z,-4.50
2018-02-23T00:47:43.773Z,-4.60
2018-02-23T00:50:12.073Z,-4.60
2018-02-23T00:52:40.409Z,-4.70
2018-02-23T00:55:08.712Z,-4.70
2018-02-23T00:57:37.033Z,-4.80
2018-02-23T01:00:05.329Z,-4.80
2018-02-23T01:02:33.648Z,-4.80
2018-02-23T01:05:01.983Z,-4.80
2018-02-23T01:07:30.280Z,-4.80
2018-02-23T01:09:58.571Z,-4.80
2018-02-23T01:12:26.120Z,-4.90
2018-02-23T01:14:53.648Z,-4.90
2018-02-23T01:17:21.986Z,-5.00
2018-02-23T01:19:50.289Z,-5.00
2018-02-23T01:22:18.604Z,-5.00
2018-02-23T01:24:46.906Z,-5.00
2018-02-23T01:27:15.228Z,-5.10
2018-02-23T01:29:43.532Z,-5.10
2018-02-23T01:32:11.852Z,-5.10
2018-02-23T01:34:40.151Z,-5.10
2018-02-23T01:37:08.452Z,-5.10
2018-02-23T01:39:36.779Z,-5.10
2018-02-23T01:42:05.072Z,-5.10
2018-02-23T01:44:33.397Z,-5.10
2018-02-23T01:47:01.692Z,-5.10
2018-02-23T01:49:30.013Z,-5.10
2018-02-23T01:51:58.311Z,-5.20
2018-02-23T01:54:26.624Z,-5.20
2018-02-23T01:56:54.912Z,-5.20
2018-02-23T01:59:23.274Z,-5.30
2018-02-23T02:01:51.532Z,-5.30
2018-02-23T02:04:19.856Z,-5.30
2018-02-23T02:06:47.388Z,-5.30
2018-02-23T02:09:15.708Z,-5.40
2018-02-23T02:11:43.237Z,-5.40
2018-02-23T02:14:11.557Z,-5.40
2018-02-23T02:16:39.852Z,-5.50
2018-02-23T02:19:08.168Z,-5.50
2018-02-23T02:21:36.468Z,-5.50
2018-02-23T02:24:04.788Z,-5.50
2018-02-23T02:26:33.092Z,-5.60
2018-02-23T02:29:01.409Z,-5.60
2018-02-23T02:31:29.707Z,-5.60
2018-02-23T02:33:58.018Z,-5.60
2018-02-23T02:36:26.322Z,-5.70
2018-02-23T02:38:54.640Z,-5.70
2018-02-23T02:41:22.176Z,-5.70
2018-02-23T02:43:50.496Z,-5.70
2018-02-23T02:46:18.792Z,-5.80
2018-02-23T02:48:47.108Z,-5.80
2018-02-23T02:51:15.401Z,-5.80
2018-02-23T02:53:43.744Z,-5.80
2018-02-23T02:56:12.038Z,-5.80
2018-02-23T02:58:40.354Z,-5.80
2018-02-23T03:01:08.668Z,-5.80
2018-02-23T03:03:36.964Z,-5.80
2018-02-23T03:06:05.285Z,-5.80
2018-02-23T03:08:33.781Z,-5.80
2018-02-23T03:11:02.093Z,-5.80
2018-02-23T03:13:30.388Z,-5.80
2018-02-23T03:15:58.700Z,-5.80
2018-02-23T03:18:27.000Z,-5.80
2018-02-23T03:20:55.320Z,-5.80
2018-02-23T03:23:23.611Z,-5.90
2018-02-23T03:25:51.904Z,-5.90
2018-02-23T03:28:20.221Z,-5.90
2018-02-23T03:30:48.526Z,-5.90
2018-02-23T03:33:16.844Z,-6.00
2018-02-23T03:35:45.145Z,-6.00
2018-02-23T03:38:13.459Z,-6.00
2018-02-23T03:40:41.757Z,-6.00
2018-02-23T03:43:10.078Z,-6.00
2018-02-23T03:45:38.380Z,-6.10
2018-02-23T03:48:06.700Z,-6.10
2018-02-23T03:50:34.993Z,-6.10
2018-02-23T03:53:02.519Z,-6.10
2018-02-23T03:55:30.832Z,-6.10
2018-02-23T03:57:59.128Z,-6.10
2018-02-23T04:00:27.445Z,-6.20
2018-02-23T04:02:55.745Z,-6.20
2018-02-23T04:05:23.301Z,-6.20
2018-02-23T04:07:51.595Z,-6.20
2018-02-23T04:10:19.908Z,-6.20
2018-02-23T04:12:48.200Z,-6.20
2018-02-23T04:15:16.516Z,-6.30
2018-02-23T04:17:44.810Z,-6.30
2018-02-23T04:20:13.124Z,-6.30
2018-02-23T04:22:41.415Z,-6.30
2018-02-23T04:25:09.728Z,-6.30
2018-02-23T04:27:38.017Z,-6.30
2018-02-23T04:30:06.341Z,-6.40
2018-02-23T04:32:34.636Z,-6.40
2018-02-23T04:35:02.953Z,-6.40
2018-02-23T04:37:31.243Z,-6.40
2018-02-23T04:39:59.560Z,-6.40
2018-02-23T04:42:27.855Z,-6.40
2018-02-23T04:44:56.176Z,-6.50
2018-02-23T04:47:24.480Z,-6.50
2018-02-23T04:49:52.801Z,-6.50
2018-02-23T04:52:21.096Z,-6.50
2018-02-23T04:54:49.427Z,-6.50
2018-02-23T04:57:17.744Z,-6.50
2018-02-23T04:59:46.036Z,-6.50
2018-02-23T05:02:14.352Z,-6.50
2018-02-23T05:04:42.661Z,-6.60
2018-02-23T05:07:10.980Z,-6.70
2018-02-23T05:09:39.276Z,-6.70
2018-02-23T05:12:07.585Z,-6.70
2018-02-23T05:14:35.876Z,-6.80
2018-02-23T05:17:04.187Z,-6.80
2018-02-23T05:19:32.488Z,-6.80
2018-02-23T05:22:00.800Z,-6.80
2018-02-23T05:24:29.109Z,-6.90
2018-02-23T05:26:57.424Z,-6.90
2018-02-23T05:29:25.724Z,-6.90
2018-02-23T05:31:54.047Z,-7.00
2018-02-23T05:34:22.349Z,-7.00
2018-02-23T05:36:50.663Z,-7.00
2018-02-23T05:39:18.955Z,-7.10
2018-02-23T05:41:47.279Z,-7.10
2018-02-23T05:44:15.576Z,-7.10
2018-02-23T05:46:43.888Z,-7.10
2018-02-23T05:49:12.192Z,-7.10
2018-02-23T05:51:40.510Z,-7.10
2018-02-23T05:54:08.804Z,-7.10
2018-02-23T05:56:37.124Z,-7.10
2018-02-23T05:59:05.412Z,-7.10
2018-02-23T06:01:33.744Z,-7.20
2018-02-23T06:04:02.040Z,-7.20
2018-02-23T06:06:30.400Z,-7.20
2018-02-23T06:08:58.714Z,-7.20
2018-02-23T06:11:27.037Z,-7.30
2018-02-23T06:13:55.341Z,-7.30
2018-02-23T06:16:27.444Z,-7.30
2018-02-23T06:18:58.366Z,-7.30
2018-02-23T06:21:26.707Z,-7.30
2018-02-23T06:23:55.004Z,-7.30
2018-02-23T06:26:23.321Z,-7.30
2018-02-23T06:28:51.612Z,-7.30
2018-02-23T06:31:19.932Z,-7.40
2018-02-23T06:33:48.228Z,-7.40
2018-02-23T06:36:16.545Z,-7.30
2018-02-23T06:38:44.872Z,-7.30
2018-02-23T06:41:13.165Z,-7.30
2018-02-23T06:43:41.492Z,-7.30
2018-02-23T06:46:09.019Z,-7.30
2018-02-23T06:48:37.335Z,-7.20
2018-02-23T06:51:05.627Z,-7.20
2018-02-23T06:53:33.992Z,-7.10
2018-02-23T06:56:02.271Z,-7.10
2018-02-23T06:58:30.608Z,-7.10
2018-02-23T07:00:58.904Z,-7.10
2018-02-23T07:03:27.220Z,-7.10
2018-02-23T07:05:55.519Z,-7.10
2018-02-23T07:08:23.833Z,-7.00
2018-02-23T07:10:52.165Z,-7.00
2018-02-23T07:13:20.467Z,-6.90
2018-02-23T07:15:48.764Z,-6.90
2018-02-23T07:18:17.085Z,-6.80
2018-02-23T07:20:45.390Z,-6.80
2018-02-23T07:23:13.707Z,-6.70
2018-02-23T07:25:44.807Z,-6.60
2018-02-23T07:28:13.137Z,-6.50
2018-02-23T07:30:41.431Z,-6.40
2018-02-23T07:33:09.748Z,-6.30
2018-02-23T07:35:38.051Z,-6.20
2018-02-23T07:38:06.371Z,-6.10
2018-02-23T07:40:34.686Z,-6.00
2018-02-23T07:43:03.017Z,-5.90
2018-02-23T07:45:31.325Z,-5.80
2018-02-23T07:47:59.644Z,-5.70
2018-02-23T07:50:27.939Z,-5.60
2018-02-23T07:52:56.256Z,-5.50
2018-02-23T07:55:24.555Z,-5.40
2018-02-23T07:57:52.876Z,-5.30
2018-02-23T08:00:21.167Z,-5.20
2018-02-23T08:02:49.488Z,-5.10
2018-02-23T08:05:17.783Z,-4.90
2018-02-23T08:07:46.109Z,-4.70
2018-02-23T08:10:14.412Z,-4.50
2018-02-23T08:12:42.719Z,-4.20
2018-02-23T08:15:11.023Z,-4.00
2018-02-23T08:17:39.352Z,-3.80
2018-02-23T08:20:07.649Z,-3.60
2018-02-23T08:22:35.948Z,-3.40
2018-02-23T08:25:04.272Z,-3.30
2018-02-23T08:27:32.568Z,-3.20
2018-02-23T08:30:00.897Z,-3.00
2018-02-23T08:32:29.192Z,-2.90
2018-02-23T08:34:57.508Z,-2.80
2018-02-23T08:37:25.805Z,-2.70
2018-02-23T08:39:54.115Z,-2.60
2018-02-23T08:42:22.404Z,-2.50
2018-02-23T08:44:50.726Z,-2.40
2018-02-23T08:47:19.028Z,-2.30
2018-02-23T08:49:47.348Z,-2.20
2018-02-23T08:52:15.644Z,-2.20
2018-02-23T08:54:43.189Z,-2.20
2018-02-23T08:57:11.476Z,-2.00
2018-02-23T08:59:39.783Z,-1.90
2018-02-23T09:02:08.082Z,-1.90
2018-02-23T09:04:36.399Z,-1.90
2018-02-23T09:07:04.693Z,-1.80
2018-02-23T09:09:33.012Z,-1.70
2018-02-23T09:12:01.311Z,-1.60
2018-02-23T09:14:29.620Z,-1.60
2018-02-23T09:16:57.941Z,-1.40
2018-02-23T09:19:26.257Z,-1.40
2018-02-23T09:21:54.550Z,-1.30
2018-02-23T09:24:22.100Z,-1.30
2018-02-23T09:26:50.392Z,-1.30
2018-02-23T09:29:18.709Z,-1.30
2018-02-23T09:31:47.005Z,-1.20
2018-02-23T09:34:37.688Z,-1.20
2018-02-23T09:37:05.978Z,-1.20
2018-02-23T09:39:34.293Z,-1.10
2018-02-23T09:42:02.625Z,-0.90
2018-02-23T09:44:30.940Z,-0.70
2018-02-23T09:46:59.236Z,-0.50
2018-02-23T09:49:27.550Z,-0.40
2018-02-23T09:51:55.084Z,-0.40
2018-02-23T09:54:23.396Z,-0.40
2018-02-23T09:56:51.685Z,-0.20
2018-02-23T09:59:19.996Z,-0.20
2018-02-23T10:01:48.296Z,-0.10
2018-02-23T10:04:16.614Z,0.10
2018-02-23T10:06:44.896Z,0.20
2018-02-23T10:09:13.199Z,0.30
2018-02-23T10:11:41.509Z,0.40
2018-02-23T10:14:09.805Z,0.40
2018-02-23T10:16:38.121Z,0.20
2018-02-23T10:19:06.409Z,0.30
2018-02-23T10:21:34.719Z,0.40
2018-02-23T10:24:03.009Z,0.50
2018-02-23T10:26:31.341Z,0.40
2018-02-23T10:28:59.624Z,0.50
2018-02-23T10:31:27.933Z,0.70
2018-02-23T10:33:55.464Z,0.60
2018-02-23T10:36:26.413Z,0.80
2018-02-23T10:38:54.704Z,1.00
2018-02-23T10:41:23.020Z,1.10
2018-02-23T10:43:51.316Z,1.10
2018-02-23T10:46:19.632Z,1.20
2018-02-23T10:48:47.929Z,1.20
2018-02-23T10:51:16.256Z,1.10
2018-02-23T10:53:44.543Z,1.20
2018-02-23T10:56:12.847Z,1.30
2018-02-23T10:58:41.140Z,1.50
2018-02-23T11:01:09.473Z,1.50
2018-02-23T11:03:37.764Z,1.60
2018-02-23T11:06:06.091Z,1.60
2018-02-23T11:08:34.415Z,1.60
2018-02-23T11:11:02.731Z,1.80
2018-02-23T11:13:31.024Z,1.80
2018-02-23T11:15:59.336Z,2.00
2018-02-23T11:18:27.627Z,2.20
2018-02-23T11:20:55.934Z,2.20
2018-02-23T11:23:24.224Z,2.10
2018-02-23T11:25:52.548Z,1.90
2018-02-23T11:28:20.844Z,1.90
2018-02-23T11:30:49.160Z,2.00
2018-02-23T11:33:17.468Z,2.00
2018-02-23T11:35:45.787Z,2.20
2018-02-23T11:38:14.076Z,2.30
2018-02-23T11:40:42.381Z,2.40
2018-02-23T11:43:10.667Z,2.40
2018-02-23T11:45:38.203Z,2.40
2018-02-23T11:48:06.484Z,2.20
2018-02-23T11:50:34.798Z,2.10
2018-02-23T11:53:02.323Z,2.10
2018-02-23T11:55:30.642Z,2.30
2018-02-23T11:58:04.652Z,2.30
2018-02-23T12:00:32.981Z,2.40
2018-02-23T12:03:01.277Z,2.40
2018-02-23T12:05:29.575Z,2.50
2018-02-23T12:07:57.883Z,2.60
2018-02-23T12:10:26.176Z,2.60
2018-02-23T12:12:54.492Z,2.60
2018-02-23T12:15:22.780Z,2.60
2018-02-23T12:17:51.091Z,2.60
2018-02-23T12:20:19.383Z,2.70
2018-02-23T12:22:47.696Z,2.80
2018-02-23T12:25:16.003Z,3.00
2018-02-23T12:27:43.580Z,2.90
2018-02-23T12:30:11.884Z,3.00
2018-02-23T12:32:40.205Z,3.00
2018-02-23T12:35:07.778Z,3.00
2018-02-23T12:37:36.084Z,3.10
2018-02-23T12:40:04.384Z,3.20
2018-02-23T12:42:32.717Z,3.30
2018-02-23T12:45:01.657Z,3.30
2018-02-23T12:47:30.004Z,3.20
2018-02-23T12:49:58.316Z,3.00
2018-02-23T12:52:26.631Z,3.00
2018-02-23T12:54:54.921Z,3.10
2018-02-23T12:57:23.241Z,3.00
2018-02-23T12:59:51.535Z,3.10
2018-02-23T13:02:19.852Z,3.20
2018-02-23T13:04:48.164Z,3.20
2018-02-23T13:07:16.494Z,3.20
2018-02-23T13:09:44.791Z,3.20
2018-02-23T13:12:13.280Z,3.40
2018-02-23T13:14:47.175Z,3.50
2018-02-23T13:17:15.500Z,3.70
2018-02-23T13:19:43.787Z,3.80
2018-02-23T13:22:12.114Z,3.80
2018-02-23T13:24:40.423Z,3.80
2018-02-23T13:27:14.421Z,3.70
2018-02-23T13:29:42.725Z,3.50
2018-02-23T13:32:11.037Z,3.40
2018-02-23T13:34:39.341Z,3.40
2018-02-23T13:37:07.670Z,3.60
2018-02-23T13:39:35.965Z,3.80
2018-02-23T13:42:04.283Z,3.70
2018-02-23T13:44:32.583Z,3.90
2018-02-23T13:47:00.908Z,4.00
2018-02-23T13:49:29.209Z,4.20
2018-02-23T13:51:57.527Z,4.10
2018-02-23T13:54:25.063Z,4.10
2018-02-23T13:56:53.353Z,4.00
2018-02-23T13:59:21.685Z,4.10
2018-02-23T14:01:49.977Z,4.20
2018-02-23T14:04:18.287Z,4.00
2018-02-23T14:06:48.399Z,3.90
2018-02-23T14:09:16.711Z,3.90
2018-02-23T14:11:45.000Z,3.80
2018-02-23T14:14:13.309Z,3.70
2018-02-23T14:16:41.607Z,3.80
2018-02-23T14:19:09.917Z,3.90
2018-02-23T14:21:38.212Z,3.90
2018-02-23T14:24:06.528Z,3.80
2018-02-23T14:26:34.833Z,3.80
2018-02-23T14:29:03.152Z,3.80
2018-02-23T14:31:31.464Z,3.70
2018-02-23T14:33:59.785Z,3.60
2018-02-23T14:36:28.070Z,3.40
2018-02-23T14:38:56.391Z,3.50
2018-02-23T14:41:24.685Z,3.50
2018-02-23T14:43:52.996Z,3.60
2018-02-23T14:46:21.288Z,3.60
2018-02-23T14:49:01.466Z,3.50
2018-02-23T14:51:29.713Z,3.40
2018-02-23T14:53:58.044Z,3.40
2018-02-23T14:56:26.340Z,3.30
2018-02-23T14:58:54.657Z,3.20
2018-02-23T15:01:22.954Z,3.20
2018-02-23T15:03:51.272Z,3.20
2018-02-23T15:06:19.567Z,3.20
2018-02-23T15:08:47.894Z,3.20
2018-02-23T15:11:16.197Z,3.10
2018-02-23T15:13:44.508Z,3.10
2018-02-23T15:16:12.807Z,3.10
2018-02-23T15:18:41.127Z,3.10
2018-02-23T15:21:09.429Z,3.10
2018-02-23T15:23:37.757Z,3.10
2018-02-23T15:26:06.046Z,3.00
2018-02-23T15:28:34.369Z,3.00
2018-02-23T15:31:14.393Z,3.10
2018-02-23T15:33:42.712Z,2.80
2018-02-23T15:36:11.003Z,2.70
2018-02-23T15:38:39.312Z,2.50
2018-02-23T15:41:07.611Z,2.30
2018-02-23T15:43:35.916Z,2.20
2018-02-23T15:46:04.216Z,2.10
2018-02-23T15:48:38.145Z,2.10
2018-02-23T15:51:22.121Z,2.10
2018-02-23T15:53:50.431Z,2.00
2018-02-23T15:56:18.723Z,1.90
2018-02-23T15:58:47.040Z,1.80
2018-02-23T16:01:15.335Z,1.70
2018-02-23T16:03:43.620Z,1.70
2018-02-23T16:06:11.936Z,1.60
2018-02-23T16:08:40.236Z,1.60
2018-02-23T16:11:08.544Z,1.60
2018-02-23T16:13:36.839Z,1.50
2018-02-23T16:16:05.149Z,1.50
2018-02-23T16:18:33.441Z,1.50
2018-02-23T16:21:01.758Z,1.40
2018-02-23T16:23:30.051Z,1.40
2018-02-23T16:25:58.364Z,1.40
2018-02-23T16:28:26.653Z,1.30
2018-02-23T16:30:54.968Z,1.30
2018-02-23T16:33:22.488Z,1.30
2018-02-23T16:35:50.796Z,1.20
2018-02-23T16:38:19.088Z,1.10
2018-02-23T16:40:47.401Z,1.00
2018-02-23T16:43:15.692Z,1.00
2018-02-23T16:45:44.008Z,0.90
2018-02-23T16:48:14.283Z,0.90
2018-02-23T16:50:42.604Z,0.80
2018-02-23T16:53:10.888Z,0.70
2018-02-23T16:55:39.203Z,0.70
2018-02-23T16:58:07.500Z,0.60
2018-02-23T17:00:35.814Z,0.60
2018-02-23T17:03:04.108Z,0.50
2018-02-23T17:05:32.428Z,0.50
2018-02-23T17:08:00.754Z,0.40
2018-02-23T17:10:29.072Z,0.40
2018-02-23T17:12:57.364Z,0.30
2018-02-23T17:15:25.681Z,0.30
2018-02-23T17:17:53.972Z,0.30
2018-02-23T17:20:22.275Z,0.20
2018-02-23T17:22:50.568Z,0.20
2018-02-23T17:25:18.891Z,0.10
2018-02-23T17:27:47.196Z,0.10
2018-02-23T17:30:15.519Z,0.10
2018-02-23T17:32:43.812Z,0.10
2018-02-23T17:35:11.360Z,0.00
2018-02-23T17:37:39.651Z,-0.10
2018-02-23T17:40:07.963Z,-0.10
2018-02-23T17:42:36.338Z,-0.10
2018-02-23T17:45:04.931Z,-0.20
2018-02-23T17:47:33.287Z,-0.30
2018-02-23T17:50:01.602Z,-0.40
2018-02-23T17:52:29.912Z,-0.40
2018-02-23T17:54:58.256Z,-0.40
2018-02-23T17:57:26.831Z,-0.40
2018-02-23T17:59:55.130Z,-0.50
2018-02-23T18:02:23.489Z,-0.60
2018-02-23T18:04:51.972Z,-0.70
2018-02-23T18:07:20.661Z,-0.80
2018-02-23T18:09:48.960Z,-0.80
2018-02-23T18:12:17.283Z,-0.90
2018-02-23T18:14:45.598Z,-0.90
2018-02-23T18:17:13.924Z,-0.90
2018-02-23T18:19:42.218Z,-0.90
2018-02-23T18:22:09.768Z,-0.90
2018-02-23T18:24:37.346Z,-1.00
2018-02-23T18:27:05.708Z,-1.10
2018-02-23T18:29:34.048Z,-1.10
2018-02-23T18:32:02.376Z,-1.20
2018-02-23T18:34:30.680Z,-1.20
2018-02-23T18:36:59.024Z,-1.30
2018-02-23T18:39:27.335Z,-1.30
2018-02-23T18:41:55.702Z,-1.20
2018-02-23T18:44:24.147Z,-1.20
2018-02-23T18:46:52.680Z,-1.20
2018-02-23T18:49:20.977Z,-1.20
2018-02-23T18:51:49.283Z,-1.20
2018-02-23T18:54:17.625Z,-1.30
2018-02-23T18:56:45.968Z,-1.30
2018-02-23T18:59:14.271Z,-1.40
2018-02-23T19:01:42.600Z,-1.40
2018-02-23T19:04:10.897Z,-1.40
2018-02-23T19:06:39.212Z,-1.50
2018-02-23T19:09:08.239Z,-1.50
2018-02-23T19:11:36.571Z,-1.50
2018-02-23T19:14:04.872Z,-1.50
2018-02-23T19:16:33.197Z,-1.60
2018-02-23T19:19:01.501Z,-1.60
2018-02-23T19:21:29.821Z,-1.70
2018-02-23T19:23:58.116Z,-1.70
2018-02-23T19:26:26.433Z,-1.80
2018-02-23T19:28:54.736Z,-1.80
2018-02-23T19:31:23.063Z,-1.90
2018-02-23T19:33:51.357Z,-1.90
2018-02-23T19:36:19.722Z,-2.00
2018-02-23T19:38:48.033Z,-2.00
2018-02-23T19:41:16.320Z,-2.00
2018-02-23T19:43:44.638Z,-2.10
2018-02-23T19:46:12.934Z,-2.10
2018-02-23T19:48:41.248Z,-2.10
2018-02-23T19:51:09.549Z,-2.10
2018-02-23T19:53:37.902Z,-2.10
2018-02-23T19:56:06.249Z,-2.00
2018-02-23T19:58:34.568Z,-2.10
2018-02-23T20:01:02.884Z,-2.10
2018-02-23T20:03:31.251Z,-2.10
2018-02-23T20:05:58.812Z,-2.10
2018-02-23T20:08:27.137Z,-2.10
2018-02-23T20:10:55.436Z,-2.10
2018-02-23T20:13:23.785Z,-2.10
2018-02-23T20:15:52.084Z,-2.00
2018-02-23T20:18:20.396Z,-2.00
2018-02-23T20:20:48.689Z,-2.00
2018-02-23T20:23:17.008Z,-2.00
2018-02-23T20:25:45.312Z,-2.10
2018-02-23T20:28:13.676Z,-2.10
2018-02-23T20:30:41.969Z,-2.20
2018-02-23T20:33:10.291Z,-2.20
2018-02-23T20:35:38.593Z,-2.40
2018-02-23T20:38:06.910Z,-2.40
2018-02-23T20:40:35.209Z,-2.60
2018-02-23T20:43:03.531Z,-2.60
2018-02-23T20:45:31.902Z,-2.70
2018-02-23T20:48:00.168Z,-2.80
2018-02-23T20:50:28.528Z,-2.80
2018-02-23T20:52:56.875Z,-2.90
2018-02-23T20:55:25.175Z,-3.00
2018-02-23T20:57:53.492Z,-3.00
2018-02-23T21:00:21.784Z,-3.10
2018-02-23T21:02:50.103Z,-3.10
2018-02-23T21:05:18.400Z,-3.20
2018-02-23T21:07:46.716Z,-3.20
2018-02-23T21:10:15.031Z,-3.30
2018-02-23T21:12:43.356Z,-3.30
2018-02-23T21:15:11.648Z,-3.40
2018-02-23T21:17:40.004Z,-3.40
2018-02-23T21:20:08.297Z,-3.50
2018-02-23T21:22:36.596Z,-3.50
2018-02-23T21:25:04.913Z,-3.60
2018-02-23T21:27:33.207Z,-3.60
2018-02-23T21:30:01.524Z,-3.70
2018-02-23T21:32:29.832Z,-3.80
2018-02-23T21:34:58.149Z,-3.80
2018-02-23T21:37:26.445Z,-3.80
2018-02-23T21:39:54.767Z,-3.90
2018-02-23T21:42:23.059Z,-3.90
2018-02-23T21:44:51.376Z,-4.00
2018-02-23T21:47:19.668Z,-4.00
2018-02-23T21:49:47.992Z,-4.10
2018-02-23T21:52:16.295Z,-4.10
2018-02-23T21:54:44.615Z,-4.10
2018-02-23T21:57:12.913Z,-4.20
2018-02-23T21:59:41.228Z,-4.20
2018-02-23T22:02:09.520Z,-4.20
2018-02-23T22:04:37.071Z,-4.20
2018-02-23T22:07:05.368Z,-4.30
2018-02-23T22:09:33.688Z,-4.30
2018-02-23T22:12:01.985Z,-4.30
2018-02-23T22:14:30.299Z,-4.40
2018-02-23T22:16:58.587Z,-4.40
2018-02-23T22:19:26.908Z,-4.50
2018-02-23T22:21:55.205Z,-4.50
2018-02-23T22:24:23.524Z,-4.60
2018-02-23T22:26:51.829Z,-4.60
2018-02-23T22:29:20.149Z,-4.60
2018-02-23T22:31:48.459Z,-4.70
2018-02-23T22:34:16.779Z,-4.70
2018-02-23T22:36:45.083Z,-4.70
2018-02-23T22:39:13.396Z,-4.80
2018-02-23T22:41:41.694Z,-4.80
2018-02-23T22:44:09.257Z,-4.80
2018-02-23T22:46:37.552Z,-4.90
2018-02-23T22:49:05.876Z,-5.00
2018-02-23T22:51:34.185Z,-5.00
2018-02-23T22:54:02.517Z,-5.00
2018-02-23T22:56:30.811Z,-5.00
2018-02-23T22:58:59.127Z,-5.10
2018-02-23T23:01:27.425Z,-5.10
2018-02-23T23:03:55.754Z,-5.10
2018-02-23T23:06:24.075Z,-5.20
2018-02-23T23:08:52.372Z,-5.20
2018-02-23T23:11:19.921Z,-5.20
2018-02-23T23:13:48.256Z,-5.30
2018-02-23T23:16:16.579Z,-5.40
2018-02-23T23:18:44.872Z,-5.40
2018-02-23T23:21:13.191Z,-5.40
2018-02-23T23:23:41.491Z,-5.40
2018-02-23T23:26:09.828Z,-5.50
2018-02-23T23:28:38.131Z,-5.50
2018-02-23T23:31:06.448Z,-5.60
2018-02-23T23:33:34.740Z,-5.60
2018-02-23T23:36:03.065Z,-5.60
2018-02-23T23:38:31.372Z,-5.60
2018-02-23T23:40:59.698Z,-5.60
2018-02-23T23:43:27.995Z,-5.70
2018-02-23T23:45:56.308Z,-5.70
2018-02-23T23:48:24.608Z,-5.70
2018-02-23T23:50:52.924Z,-5.70
2018-02-23T23:53:21.221Z,-5.80
2018-02-23T23:55:49.548Z,-5.80
2018-02-23T23:58:17.840Z,-5.80
